Time;durP1;ratioP1;P1;durP2;ratioP2;P2;SDS_P1;SDS_P2;PMS_P1;PMS_P2;Temp;Humidity;BMP_temperature;BMP_pressure;BME280_temperature;BME280_humidity;BME280_pressure;Samples;Min_cycle;Max_cycle;Signal;HPM_P1;HPM_P2
2022/07/18 00:01:04;;;;;;;1.70;1.20;;;23.70;57.50;;;;;;4472976;31;20091;-66
2022/07/18 00:03:30;;;;;;;1.85;1.05;;;23.70;57.50;;;;;;4492188;31;20717;-66
2022/07/18 00:05:55;;;;;;;2.35;1.40;;;23.60;57.40;;;;;;4490254;31;20124;-66
2022/07/18 00:08:21;;;;;;;1.35;1.20;;;23.60;57.40;;;;;;4491887;31;20069;-66
2022/07/18 00:10:47;;;;;;;1.85;1.20;;;23.60;57.40;;;;;;4492293;31;20207;-66
2022/07/18 00:13:13;;;;;;;1.65;1.02;;;23.60;57.40;;;;;;4491909;31;20508;-66
2022/07/18 00:15:38;;;;;;;1.92;1.33;;;23.60;57.40;;;;;;4491794;31;20591;-66
2022/07/18 00:18:05;;;;;;;2.05;1.35;;;23.60;57.40;;;;;;4491511;31;20508;-66
2022/07/18 00:20:31;;;;;;;1.63;1.35;;;23.60;57.40;;;;;;4492124;31;20080;-66
2022/07/18 00:22:57;;;;;;;2.78;1.42;;;23.60;57.40;;;;;;4477632;31;20265;-66
2022/07/18 00:25:23;;;;;;;1.63;1.38;;;23.60;57.40;;;;;;4492088;31;20582;-67
2022/07/18 00:27:48;;;;;;;3.40;1.20;;;23.60;57.40;;;;;;4491841;31;20065;-66
2022/07/18 00:30:14;;;;;;;2.22;1.10;;;23.60;57.40;;;;;;4492227;31;20155;-66
2022/07/18 00:32:40;;;;;;;2.38;1.40;;;23.60;57.40;;;;;;4491903;31;20182;-66
2022/07/18 00:35:07;;;;;;;1.63;1.17;;;23.60;57.40;;;;;;4491583;31;20207;-67
2022/07/18 00:37:33;;;;;;;1.25;1.05;;;23.60;57.40;;;;;;4491731;31;20077;-67
2022/07/18 00:39:58;;;;;;;3.05;1.58;;;23.60;57.40;;;;;;4491516;31;20080;-66
2022/07/18 00:42:24;;;;;;;1.48;1.00;;;23.60;57.50;;;;;;4491760;31;20410;-67
2022/07/18 00:44:54;;;;;;;1.83;1.27;;;23.60;57.40;;;;;;4491655;31;20069;-67
2022/07/18 00:47:20;;;;;;;1.65;1.15;;;23.60;57.40;;;;;;4491815;31;20510;-69
2022/07/18 00:49:46;;;;;;;1.80;1.23;;;23.60;57.40;;;;;;4491386;31;20177;-66
2022/07/18 00:52:13;;;;;;;1.63;1.13;;;23.60;57.40;;;;;;4491506;31;20101;-66
2022/07/18 00:54:39;;;;;;;1.88;1.33;;;23.60;57.40;;;;;;4491722;31;20085;-67
2022/07/18 00:57:06;;;;;;;1.85;1.13;;;23.60;57.40;;;;;;4491354;31;20636;-66
2022/07/18 01:02:17;;;;;;;1.48;1.08;;;23.50;57.40;;;;;;4491343;31;20088;-66
2022/07/18 01:04:43;;;;;;;2.03;1.08;;;23.50;57.40;;;;;;4474759;32;20099;-66
2022/07/18 01:07:09;;;;;;;1.65;1.05;;;23.50;57.40;;;;;;4488466;31;20084;-66
2022/07/18 01:09:36;;;;;;;2.53;1.30;;;23.60;57.40;;;;;;4491643;31;20080;-67
2022/07/18 01:12:03;;;;;;;1.40;1.30;;;23.50;57.40;;;;;;4482436;31;20187;-67
2022/07/18 01:14:30;;;;;;;2.38;1.02;;;23.50;57.40;;;;;;4479760;31;20095;-66
2022/07/18 01:16:56;;;;;;;1.85;1.20;;;23.50;57.40;;;;;;4477966;31;20577;-66
2022/07/18 01:19:22;;;;;;;2.65;1.10;;;23.50;57.40;;;;;;4474673;32;20281;-68
2022/07/18 01:21:48;;;;;;;1.67;1.20;;;23.50;57.40;;;;;;4479057;32;20491;-66
2022/07/18 01:24:14;;;;;;;2.20;1.27;;;23.50;57.40;;;;;;4475064;32;20078;-67
2022/07/18 01:26:40;;;;;;;1.65;1.30;;;23.50;57.40;;;;;;4476768;32;20081;-66
2022/07/18 01:29:06;;;;;;;1.58;1.20;;;23.50;57.40;;;;;;4473125;32;20125;-67
2022/07/18 01:31:33;;;;;;;1.52;1.05;;;23.50;57.40;;;;;;4483687;31;20073;-66
2022/07/18 01:34:00;;;;;;;0.88;0.80;;;23.50;57.40;;;;;;4494599;31;20080;-67
2022/07/18 01:36:26;;;;;;;2.10;1.10;;;23.50;57.40;;;;;;4494159;31;20245;-66
2022/07/18 01:38:51;;;;;;;2.72;1.10;;;23.50;57.40;;;;;;4480334;31;20219;-66
2022/07/18 01:41:17;;;;;;;2.25;1.27;;;23.50;57.40;;;;;;4494175;31;20234;-66
2022/07/18 01:43:43;;;;;;;1.50;1.20;;;23.50;57.40;;;;;;4494447;31;20081;-66
2022/07/18 01:46:10;;;;;;;1.20;1.00;;;23.50;57.40;;;;;;4488541;31;20080;-67
2022/07/18 01:48:38;;;;;;;2.25;1.40;;;23.50;57.40;;;;;;4479637;31;20582;-67
2022/07/18 01:51:04;;;;;;;1.85;1.30;;;23.40;57.30;;;;;;4478594;31;20152;-66
2022/07/18 01:53:30;;;;;;;1.40;1.00;;;23.40;57.30;;;;;;4478925;31;20091;-66
2022/07/18 01:55:55;;;;;;;1.45;1.17;;;23.40;57.30;;;;;;4477860;31;20117;-67
2022/07/18 01:58:21;;;;;;;1.13;0.88;;;23.40;57.30;;;;;;4479621;31;20206;-67
2022/07/18 02:00:47;;;;;;;1.30;1.10;;;23.40;57.30;;;;;;4484892;31;20153;-66
2022/07/18 02:03:13;;;;;;;1.50;1.00;;;23.40;57.30;;;;;;4493782;31;20080;-66
2022/07/18 02:05:39;;;;;;;1.35;1.00;;;23.40;57.30;;;;;;4494069;31;20473;-66
2022/07/18 02:08:05;;;;;;;1.30;0.90;;;23.40;57.40;;;;;;4493900;31;20157;-66
2022/07/18 02:10:31;;;;;;;1.17;1.00;;;23.40;57.40;;;;;;4493879;31;20081;-66
2022/07/18 02:12:57;;;;;;;1.55;1.20;;;23.40;57.40;;;;;;4493868;31;20207;-66
2022/07/18 02:15:23;;;;;;;1.30;1.17;;;23.40;57.40;;;;;;4493692;31;20423;-67
2022/07/18 02:17:50;;;;;;;2.65;1.60;;;23.40;57.40;;;;;;4493744;31;20127;-66
2022/07/18 02:20:17;;;;;;;1.58;0.93;;;23.40;57.40;;;;;;4493699;31;20185;-66
2022/07/18 02:22:43;;;;;;;1.33;1.15;;;23.40;57.40;;;;;;4493691;31;20583;-66
2022/07/18 02:25:11;;;;;;;2.63;1.10;;;23.40;57.40;;;;;;4494027;31;20091;-68
2022/07/18 02:27:37;;;;;;;1.63;1.02;;;23.40;57.40;;;;;;4493634;31;20553;-66
2022/07/18 02:30:05;;;;;;;0.95;0.82;;;23.40;57.30;;;;;;4479652;31;20128;-66
2022/07/18 02:32:31;;;;;;;1.10;1.00;;;23.40;57.40;;;;;;4479508;31;20484;-70
2022/07/18 02:34:56;;;;;;;1.73;0.95;;;23.40;57.30;;;;;;4493734;31;20519;-66
2022/07/18 02:37:22;;;;;;;1.92;1.15;;;23.30;57.20;;;;;;4493661;31;20077;-67
2022/07/18 02:39:48;;;;;;;1.65;1.08;;;23.40;57.30;;;;;;4493508;31;20061;-66
2022/07/18 02:42:14;;;;;;;1.42;1.02;;;23.40;57.30;;;;;;4493600;31;20054;-66
2022/07/18 02:44:40;;;;;;;1.20;0.88;;;23.30;57.30;;;;;;4493296;31;20053;-66
2022/07/18 02:47:06;;;;;;;1.00;0.90;;;23.30;57.30;;;;;;4493563;31;20485;-67
2022/07/18 02:49:32;;;;;;;1.30;1.20;;;23.30;57.30;;;;;;4493122;31;20083;-67
2022/07/18 02:52:06;;;;;;;2.10;1.10;;;23.30;57.30;;;;;;4479168;31;20497;-66
2022/07/18 02:54:32;;;;;;;;;;;23.30;57.30;;;;;;4494140;31;20084;-66
2022/07/18 02:56:58;;;;;;;2.78;1.20;;;23.30;57.30;;;;;;4493093;31;20386;-66
2022/07/18 02:59:26;;;;;;;1.25;1.00;;;23.30;57.30;;;;;;4493327;31;20093;-66
2022/07/18 03:01:52;;;;;;;1.85;1.02;;;23.30;57.30;;;;;;4492909;31;20088;-66
2022/07/18 03:04:19;;;;;;;1.15;0.90;;;23.30;57.30;;;;;;4493381;31;20231;-66
2022/07/18 03:06:46;;;;;;;1.35;1.20;;;23.30;57.30;;;;;;4493003;31;20088;-66
2022/07/18 03:09:12;;;;;;;1.63;1.17;;;23.30;57.30;;;;;;4493331;31;20215;-67
2022/07/18 03:11:38;;;;;;;1.00;0.90;;;23.30;57.30;;;;;;4492930;31;20085;-68
2022/07/18 03:14:04;;;;;;;2.85;1.00;;;23.30;57.30;;;;;;4493013;31;20076;-66
2022/07/18 03:16:30;;;;;;;1.15;0.90;;;23.30;57.30;;;;;;4492741;31;20198;-66
2022/07/18 03:18:56;;;;;;;1.20;0.93;;;23.30;57.30;;;;;;4492612;31;20652;-66
2022/07/18 03:21:23;;;;;;;1.20;0.93;;;23.30;57.30;;;;;;4478851;31;20210;-66
2022/07/18 03:23:49;;;;;;;2.08;1.30;;;23.30;57.30;;;;;;4492993;31;20061;-66
2022/07/18 03:26:15;;;;;;;1.67;1.02;;;23.30;57.30;;;;;;4492722;31;20068;-66
2022/07/18 03:28:41;;;;;;;1.63;0.93;;;23.30;57.30;;;;;;4492943;31;20170;-66
2022/07/18 03:31:07;;;;;;;1.50;1.00;;;23.30;57.30;;;;;;4492647;31;20158;-66
2022/07/18 03:33:33;;;;;;;1.75;1.30;;;23.30;58.30;;;;;;4492902;31;20494;-66
2022/07/18 03:35:59;;;;;;;1.33;1.00;;;23.30;57.30;;;;;;4492555;31;20061;-67
2022/07/18 03:38:24;;;;;;;1.30;1.20;;;23.30;57.30;;;;;;4492554;31;20424;-66
2022/07/18 03:40:50;;;;;;;1.55;1.10;;;23.30;57.30;;;;;;4492561;31;20215;-66
2022/07/18 03:43:16;;;;;;;1.60;1.20;;;23.20;57.30;;;;;;4492453;31;20069;-67
2022/07/18 03:45:42;;;;;;;1.83;1.23;;;23.20;57.30;;;;;;4478371;31;20061;-66
2022/07/18 03:48:08;;;;;;;2.00;1.10;;;23.20;57.30;;;;;;4492333;31;20088;-74
2022/07/18 03:50:34;;;;;;;1.63;1.35;;;23.20;57.30;;;;;;4492756;31;20493;-66
2022/07/18 03:53:00;;;;;;;1.15;1.00;;;23.20;57.40;;;;;;4491918;31;20053;-67
2022/07/18 03:55:26;;;;;;;1.17;1.02;;;23.20;57.40;;;;;;4492471;31;20072;-66
2022/07/18 03:57:51;;;;;;;1.67;1.20;;;23.20;57.40;;;;;;4492327;31;20402;-66
2022/07/18 04:00:17;;;;;;;1.35;1.05;;;23.20;57.30;;;;;;4492227;31;20069;-66
2022/07/18 04:02:45;;;;;;;1.38;1.20;;;23.20;57.30;;;;;;4492475;31;20073;-67
2022/07/18 04:05:12;;;;;;;2.08;1.13;;;23.20;57.30;;;;;;4492118;31;20402;-66
2022/07/18 04:07:38;;;;;;;1.17;0.98;;;23.20;57.40;;;;;;4492355;31;20220;-67
2022/07/18 04:10:06;;;;;;;1.30;1.10;;;23.20;57.40;;;;;;4492131;31;20073;-66
2022/07/18 04:12:32;;;;;;;4.00;1.25;;;23.20;57.40;;;;;;4492240;31;20088;-66
2022/07/18 04:14:58;;;;;;;1.52;1.02;;;23.20;57.40;;;;;;4491946;31;20092;-66
2022/07/18 04:17:24;;;;;;;1.30;1.10;;;23.20;57.40;;;;;;4492014;31;20105;-67
2022/07/18 04:19:50;;;;;;;1.08;0.93;;;23.20;57.40;;;;;;4491921;31;20191;-66
2022/07/18 04:22:17;;;;;;;1.50;1.17;;;23.10;57.30;;;;;;4491972;31;20065;-67
2022/07/18 04:24:43;;;;;;;1.98;1.10;;;23.20;57.40;;;;;;4491903;31;20092;-66
2022/07/18 04:27:09;;;;;;;1.20;1.10;;;23.10;58.30;;;;;;4491993;31;20509;-66
2022/07/18 04:29:36;;;;;;;1.10;1.00;;;23.20;57.40;;;;;;4491787;31;20080;-66
2022/07/18 04:32:02;;;;;;;0.90;0.90;;;23.10;57.40;;;;;;4492037;31;20600;-66
2022/07/18 04:34:28;;;;;;;1.15;1.00;;;23.10;57.40;;;;;;4491769;31;20532;-66
2022/07/18 04:36:54;;;;;;;1.20;1.10;;;23.10;57.40;;;;;;4491926;31;20105;-66
2022/07/18 04:39:19;;;;;;;1.00;0.88;;;23.10;57.30;;;;;;4491633;31;20077;-67
2022/07/18 04:41:47;;;;;;;1.40;1.20;;;23.10;57.40;;;;;;4491944;31;20423;-66
2022/07/18 04:44:12;;;;;;;2.00;1.20;;;23.10;57.40;;;;;;4491852;31;20077;-66
2022/07/18 04:46:38;;;;;;;1.40;1.20;;;23.10;57.40;;;;;;4491535;31;20332;-67
2022/07/18 04:49:04;;;;;;;1.65;1.10;;;23.10;57.40;;;;;;4477275;31;20407;-66
2022/07/18 04:51:30;;;;;;;1.48;1.23;;;23.10;57.40;;;;;;4491513;31;20194;-66
2022/07/18 04:53:56;;;;;;;2.05;1.10;;;23.10;57.40;;;;;;4491724;31;20274;-66
2022/07/18 04:56:22;;;;;;;1.20;1.10;;;23.10;57.40;;;;;;4491514;31;20116;-67
2022/07/18 04:58:48;;;;;;;1.92;1.30;;;23.10;57.40;;;;;;4491885;31;20077;-66
2022/07/18 05:01:14;;;;;;;1.77;1.10;;;23.10;57.50;;;;;;4491689;31;20061;-66
2022/07/18 05:03:40;;;;;;;1.42;1.15;;;23.10;57.50;;;;;;4491109;31;20065;-66
2022/07/18 05:06:06;;;;;;;1.63;1.25;;;23.10;57.50;;;;;;4491265;31;20222;-66
2022/07/18 05:08:33;;;;;;;1.98;1.38;;;23.10;57.40;;;;;;4491326;31;20073;-66
2022/07/18 05:10:59;;;;;;;1.35;0.98;;;23.10;57.40;;;;;;4491555;31;20124;-66
2022/07/18 05:13:24;;;;;;;1.55;1.10;;;23.10;57.50;;;;;;4491291;31;20195;-66
2022/07/18 05:15:51;;;;;;;1.30;1.02;;;23.10;57.50;;;;;;4491023;31;20578;-66
2022/07/18 05:18:17;;;;;;;1.65;1.20;;;23.10;57.50;;;;;;4491308;31;20542;-73
2022/07/18 05:20:42;;;;;;;1.38;1.17;;;23.10;57.50;;;;;;4491304;31;20075;-66
2022/07/18 05:23:09;;;;;;;1.42;1.17;;;23.10;57.50;;;;;;4491265;31;20088;-67
2022/07/18 05:25:35;;;;;;;1.20;1.10;;;23.10;57.50;;;;;;4491455;32;20065;-66
2022/07/18 05:28:01;;;;;;;1.17;1.08;;;23.00;57.40;;;;;;4491129;32;20135;-66
2022/07/18 05:30:26;;;;;;;1.25;1.10;;;23.10;57.50;;;;;;4491247;32;20562;-66
2022/07/18 05:32:53;;;;;;;1.52;1.20;;;23.00;57.50;;;;;;4491178;32;20092;-66
2022/07/18 05:35:19;;;;;;;1.08;0.93;;;23.10;57.50;;;;;;4491346;32;20493;-66
2022/07/18 05:37:45;;;;;;;1.33;1.10;;;23.10;57.50;;;;;;4491094;32;20504;-66
2022/07/18 05:40:13;;;;;;;1.88;1.50;;;23.10;57.50;;;;;;4491381;32;20154;-66
2022/07/18 05:42:40;;;;;;;1.48;1.38;;;23.10;57.60;;;;;;4491295;32;20076;-66
2022/07/18 05:45:07;;;;;;;1.40;1.13;;;23.10;57.50;;;;;;4476958;32;20077;-66
2022/07/18 05:47:33;;;;;;;1.17;1.08;;;23.10;57.60;;;;;;4491163;32;20092;-66
2022/07/18 05:49:59;;;;;;;1.52;1.27;;;23.10;57.60;;;;;;4490732;32;20073;-66
2022/07/18 05:52:25;;;;;;;1.40;1.30;;;23.10;57.60;;;;;;4477182;32;20237;-66
2022/07/18 05:54:51;;;;;;;1.60;1.30;;;23.00;57.50;;;;;;4491034;32;20402;-66
2022/07/18 05:57:17;;;;;;;1.90;1.20;;;23.00;57.50;;;;;;4491233;32;20152;-66
2022/07/18 05:59:43;;;;;;;1.17;1.05;;;23.00;57.50;;;;;;4491104;32;20085;-66
2022/07/18 06:02:08;;;;;;;1.80;1.10;;;23.00;57.50;;;;;;4479987;32;20073;-66
2022/07/18 06:04:34;;;;;;;1.77;1.30;;;23.00;57.50;;;;;;4491024;32;20414;-66
2022/07/18 06:07:00;;;;;;;1.20;1.10;;;23.10;57.60;;;;;;4476786;32;20166;-65
2022/07/18 06:09:30;;;;;;;1.75;1.10;;;23.00;57.60;;;;;;4491231;32;20155;-66
2022/07/18 06:11:59;;;;;;;1.83;1.10;;;23.00;57.60;;;;;;4476736;32;20116;-66
2022/07/18 06:14:29;;;;;;;1.30;1.08;;;23.00;57.60;;;;;;4490942;32;20182;-66
2022/07/18 06:16:56;;;;;;;1.77;1.48;;;23.00;57.60;;;;;;4493104;31;20103;-66
2022/07/18 06:19:22;;;;;;;1.40;1.30;;;23.00;57.60;;;;;;4493485;31;20083;-66
2022/07/18 06:21:48;;;;;;;2.45;1.40;;;23.00;57.60;;;;;;4494071;31;20061;-66
2022/07/18 06:24:15;;;;;;;1.63;1.15;;;23.00;57.60;;;;;;4493819;31;20098;-66
2022/07/18 06:26:41;;;;;;;1.90;1.17;;;23.10;57.80;;;;;;4479585;31;20085;-66
2022/07/18 06:29:06;;;;;;;1.48;1.00;;;23.10;57.70;;;;;;4491712;31;20450;-71
2022/07/18 06:31:32;;;;;;;1.17;1.00;;;23.10;57.70;;;;;;4493390;31;20119;-66
2022/07/18 06:33:58;;;;;;;1.00;0.90;;;23.10;57.70;;;;;;4495310;31;20434;-67
2022/07/18 06:36:24;;;;;;;1.80;1.38;;;23.10;57.70;;;;;;4493215;31;20321;-66
2022/07/18 06:38:51;;;;;;;2.05;1.30;;;23.10;57.70;;;;;;4493298;31;20069;-66
2022/07/18 06:41:18;;;;;;;1.20;1.10;;;23.10;57.70;;;;;;4495167;31;20112;-66
2022/07/18 06:43:43;;;;;;;1.98;1.30;;;23.10;57.70;;;;;;4495484;31;20085;-66
2022/07/18 06:46:09;;;;;;;2.75;1.42;;;23.10;57.70;;;;;;4493268;31;20065;-66
2022/07/18 06:48:35;;;;;;;1.80;1.38;;;23.10;57.80;;;;;;4492992;31;20635;-66
2022/07/18 06:51:02;;;;;;;2.40;1.75;;;23.10;57.70;;;;;;4495049;31;20147;-66
2022/07/18 06:53:28;;;;;;;2.47;1.70;;;23.10;57.70;;;;;;4490920;31;20135;-66
2022/07/18 06:55:55;;;;;;;3.03;1.80;;;23.10;57.60;;;;;;4492916;31;20770;-68
2022/07/18 06:58:20;;;;;;;2.97;1.80;;;23.10;57.50;;;;;;4478655;31;20057;-67
2022/07/18 07:00:46;;;;;;;3.10;2.08;;;23.20;57.50;;;;;;4495146;31;20097;-66
2022/07/18 07:03:12;;;;;;;3.80;2.03;;;23.20;57.30;;;;;;4492840;31;20245;-66
2022/07/18 07:05:38;;;;;;;3.85;2.00;;;23.20;57.10;;;;;;4497176;31;20065;-66
2022/07/18 07:08:04;;;;;;;3.50;1.95;;;23.30;56.90;;;;;;4465535;31;20155;-66
2022/07/18 07:10:30;;;;;;;4.15;1.58;;;23.30;56.40;;;;;;4494815;31;20227;-65
2022/07/18 07:12:55;;;;;;;2.78;1.77;;;23.30;56.00;;;;;;4492727;31;20061;-66
2022/07/18 07:15:23;;;;;;;4.43;2.28;;;23.30;55.50;;;;;;4492858;31;20091;-68
2022/07/18 07:17:50;;;;;;;4.15;1.92;;;23.30;54.70;;;;;;4492767;31;20093;-65
2022/07/18 07:20:20;;;;;;;4.30;1.92;;;23.30;54.20;;;;;;4492969;31;20073;-65
2022/07/18 07:22:51;;;;;;;6.95;2.25;;;23.40;53.90;;;;;;4492766;31;20068;-66
2022/07/18 07:25:20;;;;;;;4.10;1.75;;;23.40;53.70;;;;;;4493209;31;20065;-66
2022/07/18 07:27:46;;;;;;;3.53;1.98;;;23.40;53.40;;;;;;4491952;31;20104;-66
2022/07/18 07:30:14;;;;;;;5.32;1.80;;;23.40;53.20;;;;;;4492775;31;20073;-66
2022/07/18 07:33:01;;;;;;;3.65;1.67;;;23.40;52.90;;;;;;4470364;31;20133;-65
2022/07/18 07:35:27;;;;;;;4.75;1.70;;;23.40;52.40;;;;;;4492435;31;20120;-66
2022/07/18 07:37:56;;;;;;;3.78;1.75;;;23.40;52.10;;;;;;4492265;31;20092;-65
2022/07/18 07:40:26;;;;;;;4.32;1.90;;;23.40;52.00;;;;;;4492343;31;20171;-66
2022/07/18 07:43:03;;;;;;;4.65;1.90;;;23.40;51.90;;;;;;4492262;31;20083;-66
2022/07/18 07:45:30;;;;;;;4.68;1.77;;;23.40;51.80;;;;;;4492730;31;20073;-66
2022/07/18 07:47:55;;;;;;;7.47;1.70;;;23.50;51.80;;;;;;4478305;31;20520;-65
2022/07/18 07:50:21;;;;;;;3.08;1.52;;;23.50;51.70;;;;;;4492570;31;20065;-66
2022/07/18 07:52:47;;;;;;;2.42;1.65;;;23.50;51.50;;;;;;4492504;31;20109;-66
2022/07/18 07:55:13;;;;;;;5.90;1.60;;;23.50;51.40;;;;;;4492087;31;20073;-66
2022/07/18 07:57:39;;;;;;;5.72;1.92;;;23.60;51.40;;;;;;4492494;31;20397;-66
2022/07/18 08:00:07;;;;;;;3.17;1.50;;;23.60;51.30;;;;;;4491144;31;20166;-66
2022/07/18 08:02:33;;;;;;;3.15;1.38;;;23.60;51.10;;;;;;4492552;31;20131;-68
2022/07/18 08:04:59;;;;;;;6.07;1.58;;;23.60;51.10;;;;;;4492076;31;20162;-68
2022/07/18 08:07:25;;;;;;;3.10;1.70;;;23.60;51.00;;;;;;4478283;31;20149;-68
2022/07/18 08:09:51;;;;;;;2.80;1.48;;;23.50;50.80;;;;;;4492249;31;20085;-69
2022/07/18 08:12:17;;;;;;;5.97;1.63;;;23.60;50.90;;;;;;4491919;31;20100;-68
2022/07/18 08:14:43;;;;;;;3.97;1.67;;;23.60;50.90;;;;;;4492199;31;20123;-68
2022/07/18 08:17:09;;;;;;;2.20;1.48;;;23.60;50.80;;;;;;4492270;31;20417;-69
2022/07/18 08:19:35;;;;;;;4.47;1.80;;;23.60;50.80;;;;;;4491611;31;20057;-69
2022/07/18 08:22:01;;;;;;;6.57;1.60;;;23.60;50.90;;;;;;4491622;31;20084;-68
2022/07/18 08:24:27;;;;;;;4.72;1.77;;;23.60;50.90;;;;;;4491590;31;20183;-67
2022/07/18 08:26:53;;;;;;;3.05;1.40;;;23.70;51.00;;;;;;4491987;31;20080;-67
2022/07/18 08:29:19;;;;;;;4.30;1.50;;;23.70;52.00;;;;;;4490622;31;20057;-67
2022/07/18 08:31:45;;;;;;;5.07;1.77;;;23.70;51.10;;;;;;4485916;31;20053;-66
2022/07/18 08:34:11;;;;;;;5.70;1.60;;;23.80;51.00;;;;;;4487064;31;20207;-67
2022/07/18 08:36:37;;;;;;;2.92;1.42;;;23.80;50.90;;;;;;4491534;31;20178;-66
2022/07/18 08:39:03;;;;;;;4.40;1.55;;;23.80;50.90;;;;;;4491460;31;20087;-67
2022/07/18 08:41:29;;;;;;;4.07;1.50;;;23.80;51.00;;;;;;4491181;31;20135;-67
2022/07/18 08:43:55;;;;;;;3.40;1.60;;;23.80;51.10;;;;;;4477178;31;20076;-67
2022/07/18 08:46:22;;;;;;;4.90;1.27;;;23.80;51.10;;;;;;4491401;31;20186;-67
2022/07/18 08:48:52;;;;;;;2.75;1.40;;;23.80;51.00;;;;;;4491492;31;20497;-67
2022/07/18 08:51:18;;;;;;;3.25;1.80;;;23.80;51.10;;;;;;4491681;31;20092;-67
2022/07/18 08:53:47;;;;;;;4.05;1.70;;;23.70;51.30;;;;;;4492828;31;20092;-67
2022/07/18 08:56:13;;;;;;;6.50;1.80;;;23.80;51.50;;;;;;4492441;31;20137;-65
2022/07/18 08:58:39;;;;;;;4.60;1.75;;;23.80;51.60;;;;;;4491741;31;20227;-68
2022/07/18 09:01:06;;;;;;;5.13;1.70;;;23.80;51.60;;;;;;4492058;31;20053;-67
2022/07/18 09:03:32;;;;;;;4.53;1.50;;;23.80;51.60;;;;;;4492497;31;20073;-67
2022/07/18 09:06:12;;;;;;;4.05;1.67;;;23.80;51.40;;;;;;4492789;31;20415;-67
2022/07/18 09:08:56;;;;;;;4.72;1.67;;;23.80;51.30;;;;;;4492609;31;20069;-65
2022/07/18 09:11:22;;;;;;;7.47;1.70;;;23.80;51.20;;;;;;4479317;31;20073;-65
2022/07/18 09:13:48;;;;;;;6.28;2.05;;;23.80;51.10;;;;;;4491156;31;20404;-67
2022/07/18 09:16:15;;;;;;;5.22;1.90;;;23.80;51.10;;;;;;4491028;31;20523;-66
2022/07/18 09:18:47;;;;;;;12.05;1.77;;;23.80;51.20;;;;;;4490946;31;20105;-66
2022/07/18 09:21:17;;;;;;;2.63;1.45;;;23.80;51.00;;;;;;4491240;31;20134;-66
2022/07/18 09:23:48;;;;;;;4.53;1.60;;;23.90;50.80;;;;;;4491256;31;20551;-67
2022/07/18 09:26:40;;;;;;;5.90;1.60;;;23.90;50.70;;;;;;4490893;31;20165;-66
2022/07/18 09:29:13;;;;;;;5.00;1.70;;;23.90;50.60;;;;;;4491130;32;20120;-70
2022/07/18 09:31:44;;;;;;;4.63;1.40;;;23.90;50.80;;;;;;4491237;32;20514;-66
2022/07/18 09:34:10;;;;;;;4.50;1.48;;;23.90;50.80;;;;;;4491397;31;20061;-66
2022/07/18 09:36:54;;;;;;;3.58;1.58;;;24.00;50.80;;;;;;4490926;32;20477;-66
2022/07/18 09:39:20;;;;;;;;;;;24.00;51.00;;;;;;4491946;32;20452;-67
2022/07/18 09:41:46;;;;;;;9.30;1.77;;;24.00;51.20;;;;;;4491019;31;19970;-65
2022/07/18 09:44:19;;;;;;;3.63;1.35;;;24.00;51.30;;;;;;4491054;31;20123;-66
2022/07/18 09:47:04;;;;;;;6.97;1.55;;;24.00;51.60;;;;;;4491139;32;20076;-67
2022/07/18 09:49:31;;;;;;;3.72;1.58;;;24.00;52.80;;;;;;4485931;32;20185;-67
2022/07/18 09:52:03;;;;;;;3.75;1.75;;;23.90;51.90;;;;;;4477312;31;20085;-69
2022/07/18 09:54:44;;;;;;;4.22;1.90;;;23.90;52.20;;;;;;4493629;31;20069;-69
2022/07/18 09:57:22;;;;;;;4.07;1.40;;;23.90;52.40;;;;;;4494036;31;20204;-69
2022/07/18 09:59:49;;;;;;;3.75;1.58;;;23.90;53.40;;;;;;4489966;31;20554;-69
2022/07/18 10:02:14;;;;;;;4.35;1.65;;;23.80;52.60;;;;;;4494222;31;20093;-69
2022/07/18 10:04:40;;;;;;;3.00;1.65;;;23.90;52.80;;;;;;4493957;31;20445;-69
2022/07/18 10:07:06;;;;;;;5.90;1.75;;;23.80;52.90;;;;;;4493892;31;20214;-69
2022/07/18 10:09:33;;;;;;;5.15;1.15;;;23.80;53.00;;;;;;4492902;31;20367;-69
2022/07/18 10:12:00;;;;;;;4.45;1.60;;;23.80;54.00;;;;;;4493815;31;20081;-69
2022/07/18 10:14:27;;;;;;;3.38;1.15;;;23.80;53.20;;;;;;4493860;31;20073;-69
2022/07/18 10:16:54;;;;;;;3.53;1.50;;;23.80;53.30;;;;;;4462682;32;20125;-66
2022/07/18 10:19:20;;;;;;;5.75;1.27;;;23.80;53.40;;;;;;4462184;32;20092;-66
2022/07/18 10:21:49;;;;;;;5.50;1.50;;;23.80;53.50;;;;;;4462544;32;20073;-67
2022/07/18 10:24:18;;;;;;;3.53;1.88;;;23.80;53.60;;;;;;4462437;32;20656;-67
2022/07/18 10:26:43;;;;;;;6.95;1.60;;;23.80;53.60;;;;;;4461355;32;20066;-70
2022/07/18 10:29:15;;;;;;;7.30;1.58;;;23.80;53.70;;;;;;4462402;32;20085;-67
2022/07/18 10:32:00;;;;;;;4.72;1.40;;;23.80;53.80;;;;;;4462606;32;20090;-67
2022/07/18 10:34:31;;;;;;;3.55;1.50;;;23.80;53.90;;;;;;4461209;32;20112;-66
2022/07/18 10:37:01;;;;;;;4.65;1.50;;;23.80;53.90;;;;;;4461262;32;20192;-66
2022/07/18 10:39:37;;;;;;;5.82;1.60;;;23.80;54.00;;;;;;4462208;32;20477;-66
2022/07/18 10:42:02;;;;;;;3.90;1.45;;;23.80;54.00;;;;;;4462375;32;20173;-66
2022/07/18 10:44:31;;;;;;;4.65;1.30;;;23.80;54.00;;;;;;4462107;32;20462;-66
2022/07/18 10:47:06;;;;;;;3.22;1.30;;;23.80;54.10;;;;;;4462362;32;20137;-66
2022/07/18 10:49:53;;;;;;;6.93;1.60;;;23.80;54.20;;;;;;4461857;32;20082;-66
2022/07/18 10:52:27;;;;;;;2.10;1.10;;;23.80;54.20;;;;;;4462292;32;20074;-66
2022/07/18 10:55:02;;;;;;;4.13;1.65;;;23.90;54.30;;;;;;4461929;32;20239;-66
2022/07/18 10:57:57;;;;;;;2.65;1.58;;;23.80;54.30;;;;;;4462158;32;20102;-66
2022/07/18 11:00:37;;;;;;;5.78;1.73;;;23.90;54.40;;;;;;4449839;32;20081;-66
2022/07/18 11:03:10;;;;;;;3.90;1.48;;;23.90;54.40;;;;;;4462065;32;20080;-66
2022/07/18 11:05:39;;;;;;;;;;;23.90;54.50;;;;;;4435617;32;20105;-66
2022/07/18 11:08:12;;;;;;;3.47;1.40;;;23.80;54.50;;;;;;4456425;32;20438;-67
2022/07/18 11:10:45;;;;;;;3.97;1.27;;;23.90;54.60;;;;;;4461646;32;20074;-67
2022/07/18 11:13:29;;;;;;;4.60;1.63;;;23.90;54.60;;;;;;4461633;32;20156;-66
2022/07/18 11:15:56;;;;;;;3.60;1.13;;;23.90;54.60;;;;;;4459257;31;20080;-66
2022/07/18 11:18:22;;;;;;;3.33;1.48;;;23.90;54.60;;;;;;4493227;31;20088;-66
2022/07/18 11:20:49;;;;;;;2.00;1.35;;;23.90;54.70;;;;;;4492696;31;20604;-66
2022/07/18 11:23:23;;;;;;;2.55;1.33;;;23.90;54.70;;;;;;4493186;31;20503;-66
2022/07/18 11:25:56;;;;;;;2.83;1.20;;;23.90;54.80;;;;;;4493015;31;20519;-66
2022/07/18 11:28:22;;;;;;;4.32;1.52;;;23.90;54.80;;;;;;4493008;31;20400;-67
2022/07/18 11:30:59;;;;;;;2.63;1.50;;;23.90;54.80;;;;;;4492776;31;20092;-71
2022/07/18 11:33:28;;;;;;;3.15;1.30;;;23.90;54.80;;;;;;4492890;31;20093;-66
2022/07/18 11:36:09;;;;;;;5.72;1.52;;;23.90;54.90;;;;;;4492813;31;20139;-66
2022/07/18 11:38:37;;;;;;;2.88;1.10;;;23.90;55.00;;;;;;4483451;31;20214;-66
2022/07/18 11:41:03;;;;;;;3.28;1.20;;;24.00;55.00;;;;;;4478385;31;20230;-67
2022/07/18 11:43:30;;;;;;;2.47;1.10;;;24.00;55.00;;;;;;4492867;31;20399;-66
2022/07/18 11:46:01;;;;;;;3.05;1.50;;;24.00;55.00;;;;;;4492737;31;20257;-66
2022/07/18 11:48:27;;;;;;;3.08;1.50;;;24.00;55.00;;;;;;4492502;31;20422;-67
2022/07/18 11:50:52;;;;;;;3.05;1.30;;;24.00;55.10;;;;;;4492369;31;20073;-68
2022/07/18 11:53:18;;;;;;;2.72;1.30;;;24.00;55.10;;;;;;4492430;31;20080;-66
2022/07/18 11:55:44;;;;;;;3.10;1.30;;;24.00;55.10;;;;;;4492482;31;20084;-66
2022/07/18 11:58:14;;;;;;;2.42;1.50;;;24.00;55.10;;;;;;4492364;31;20455;-67
2022/07/18 12:00:42;;;;;;;2.70;1.20;;;24.00;55.20;;;;;;4478515;31;20411;-66
2022/07/18 12:03:09;;;;;;;2.72;1.35;;;24.00;55.20;;;;;;4478197;31;20151;-67
2022/07/18 12:05:38;;;;;;;3.17;1.40;;;24.00;55.20;;;;;;4492482;31;20101;-66
2022/07/18 12:08:27;;;;;;;2.30;1.30;;;24.00;55.20;;;;;;4492271;31;20089;-66
2022/07/18 12:11:17;;;;;;;3.13;1.50;;;24.00;55.20;;;;;;4482778;31;20081;-66
2022/07/18 12:13:44;;;;;;;1.95;1.20;;;24.00;55.20;;;;;;4491926;31;20081;-66
2022/07/18 12:16:37;;;;;;;3.35;1.05;;;24.00;55.20;;;;;;4491747;31;20162;-66
2022/07/18 12:19:24;;;;;;;2.47;1.23;;;24.00;55.30;;;;;;4491882;31;20113;-67
2022/07/18 12:22:08;;;;;;;3.13;1.55;;;24.00;55.30;;;;;;4492303;31;20187;-67
2022/07/18 12:24:50;;;;;;;1.85;1.20;;;24.00;55.40;;;;;;4491896;31;20539;-67
2022/07/18 12:27:21;;;;;;;4.22;1.40;;;24.00;55.40;;;;;;4492202;31;20219;-67
2022/07/18 12:29:56;;;;;;;1.95;1.42;;;24.00;55.40;;;;;;4491817;31;20069;-70
2022/07/18 12:32:24;;;;;;;2.47;1.50;;;24.10;55.40;;;;;;4492018;31;20088;-66
2022/07/18 12:35:23;;;;;;;2.45;1.20;;;24.10;55.40;;;;;;4491734;31;20089;-66
2022/07/18 12:37:58;;;;;;;3.47;1.45;;;24.10;55.40;;;;;;4477091;31;20077;-66
2022/07/18 12:40:26;;;;;;;1.92;1.30;;;24.10;55.40;;;;;;4492100;31;20077;-66
2022/07/18 12:43:10;;;;;;;2.40;1.30;;;24.10;55.40;;;;;;4491738;31;20061;-67
2022/07/18 12:45:37;;;;;;;2.20;1.25;;;24.10;55.40;;;;;;4491922;31;20165;-66
2022/07/18 12:48:05;;;;;;;2.95;1.63;;;24.10;55.40;;;;;;4491633;31;20203;-67
2022/07/18 12:50:31;;;;;;;2.17;1.15;;;24.10;55.40;;;;;;4491619;31;20077;-67
2022/07/18 12:52:58;;;;;;;3.05;1.60;;;24.20;55.40;;;;;;4477437;31;20076;-67
2022/07/18 12:55:25;;;;;;;4.13;1.60;;;24.20;55.40;;;;;;4491602;31;20526;-67